Time;durP1;ratioP1;P1;durP2;ratioP2;P2;SDS_P1;SDS_P2;PMS_P1;PMS_P2;Temp;Humidity;BMP_temperature;BMP_pressure;BME280_temperature;BME280_humidity;BME280_pressure;Samples;Min_cycle;Max_cycle;Signal;HPM_P1;HPM_P2
2023/06/30 00:08:38;;;;;;;1999.90;999.90;;;19.10;99.90;;;;;;6758610;88;20202;-80
2023/06/30 00:18:38;;;;;;;1999.90;999.90;;;19.10;99.90;;;;;;6756591;88;20180;-79
2023/06/30 00:28:39;;;;;;;1999.90;999.90;;;18.90;99.90;;;;;;6763668;87;20271;-80
2023/06/30 00:38:39;;;;;;;1999.90;999.90;;;18.50;99.90;;;;;;6759496;87;20710;-79
2023/06/30 00:48:40;;;;;;;1999.90;999.90;;;18.20;99.90;;;;;;6760160;87;20180;-80
2023/06/30 00:58:40;;;;;;;1999.90;999.90;;;17.90;99.90;;;;;;6771238;87;20545;-78
2023/06/30 01:08:48;;;;;;;1999.90;999.90;;;17.70;99.90;;;;;;6772671;87;20216;-80
2023/06/30 01:18:53;;;;;;;1999.90;999.90;;;17.50;99.90;;;;;;6741070;88;20277;-79
2023/06/30 01:28:54;;;;;;;;;;;17.40;99.90;;;;;;6740946;88;20233;-79
2023/06/30 01:38:54;;;;;;;1999.90;999.90;;;17.30;99.90;;;;;;6741678;88;20060;-79
2023/06/30 01:48:55;;;;;;;1999.90;999.90;;;17.10;99.90;;;;;;6738017;88;20313;-80
2023/06/30 01:58:56;;;;;;;1999.90;999.90;;;17.10;99.90;;;;;;6742677;88;20204;-78
2023/06/30 02:08:56;;;;;;;1999.90;999.90;;;16.90;99.90;;;;;;6743408;88;20244;-80
2023/06/30 02:18:57;;;;;;;1999.90;999.90;;;16.90;99.90;;;;;;6742363;88;20205;-79
2023/06/30 02:28:57;;;;;;;1999.90;999.90;;;16.70;99.90;;;;;;6742296;88;20215;-78
2023/06/30 02:38:58;;;;;;;1999.90;999.90;;;16.60;99.90;;;;;;6740501;88;20210;-79
2023/06/30 02:48:58;;;;;;;1999.90;999.90;;;16.40;99.90;;;;;;6741791;88;20176;-78
2023/06/30 02:58:59;;;;;;;1999.90;999.90;;;16.30;99.90;;;;;;6742207;88;20358;-80
2023/06/30 03:08:59;;;;;;;1999.90;999.90;;;16.20;99.90;;;;;;6744535;88;20293;-79
2023/06/30 03:19:00;;;;;;;1999.90;999.90;;;16.20;99.90;;;;;;6740848;88;20200;-78
2023/06/30 03:29:04;;;;;;;1999.90;999.90;;;16.10;99.90;;;;;;6733642;88;20188;-77
2023/06/30 03:39:05;;;;;;;1999.90;999.90;;;16.10;99.90;;;;;;6737958;88;20337;-79
2023/06/30 03:49:05;;;;;;;1999.90;999.90;;;15.90;99.90;;;;;;6737338;88;20671;-79
2023/06/30 03:59:06;;;;;;;1999.90;999.90;;;15.60;99.90;;;;;;6740116;88;20225;-78
2023/06/30 04:09:06;;;;;;;1999.90;999.90;;;15.60;99.90;;;;;;6741570;88;20183;-76
2023/06/30 04:19:07;;;;;;;1999.90;999.90;;;15.50;99.90;;;;;;6734417;88;20313;-78
2023/06/30 04:29:07;;;;;;;1999.90;999.90;;;15.40;99.90;;;;;;6737381;88;20218;-79
2023/06/30 04:39:08;;;;;;;1999.90;999.90;;;15.20;99.90;;;;;;6738283;88;20239;-79
2023/06/30 04:49:08;;;;;;;1999.90;999.90;;;15.30;99.90;;;;;;6739591;88;20208;-77
2023/06/30 04:59:09;;;;;;;1999.90;999.90;;;15.30;99.90;;;;;;6752945;87;20204;-78
2023/06/30 05:09:10;;;;;;;1999.90;999.90;;;15.30;99.90;;;;;;6746975;77;20194;-80
2023/06/30 05:19:11;;;;;;;1999.90;999.90;;;15.40;99.90;;;;;;6764593;88;20193;-79
2023/06/30 05:29:11;;;;;;;1999.90;999.90;;;15.30;99.90;;;;;;6760684;88;20223;-81
2023/06/30 05:39:12;;;;;;;1999.90;999.90;;;15.30;99.90;;;;;;6768744;88;20172;-80
2023/06/30 05:49:12;;;;;;;1999.90;999.90;;;15.20;99.90;;;;;;6760039;88;20208;-81
2023/06/30 05:59:13;;;;;;;1999.90;999.90;;;15.30;99.90;;;;;;6759090;87;20278;-81
2023/06/30 06:09:13;;;;;;;1999.90;999.90;;;15.40;99.90;;;;;;6761865;88;20246;-79
2023/06/30 06:19:17;;;;;;;1999.90;999.90;;;15.30;99.90;;;;;;6762173;88;20185;-78
2023/06/30 06:29:21;;;;;;;1999.90;999.90;;;15.50;99.90;;;;;;6759668;88;20537;-80
2023/06/30 06:39:22;;;;;;;1999.90;999.90;;;15.70;99.90;;;;;;6759471;88;20598;-80
2023/06/30 06:49:22;;;;;;;1999.90;999.90;;;15.90;99.90;;;;;;6751454;88;20208;-79
2023/06/30 06:59:23;;;;;;;1999.90;999.90;;;16.10;99.90;;;;;;6741978;88;20773;-79
2023/06/30 07:09:23;;;;;;;1999.90;999.90;;;16.30;99.90;;;;;;6752343;88;20200;-79
2023/06/30 07:19:24;;;;;;;1999.90;999.90;;;16.40;99.90;;;;;;6746272;88;20671;-79
2023/06/30 07:29:25;;;;;;;1999.90;999.90;;;16.60;99.90;;;;;;6726260;88;20579;-79
2023/06/30 07:39:26;;;;;;;1999.90;999.90;;;16.80;99.90;;;;;;6739376;87;20222;-79
2023/06/30 07:49:26;;;;;;;1999.90;999.90;;;17.30;99.90;;;;;;6753177;88;20195;-80
2023/06/30 07:59:27;;;;;;;1999.90;999.90;;;17.30;99.90;;;;;;6754102;87;20206;-78
2023/06/30 08:09:28;;;;;;;1999.90;999.90;;;17.60;99.90;;;;;;6750425;88;20181;-78
2023/06/30 08:19:29;;;;;;;1999.90;999.90;;;17.90;99.90;;;;;;6756593;88;20207;-78
2023/06/30 08:29:29;;;;;;;1999.90;999.90;;;18.30;99.90;;;;;;6755849;88;20196;-77
2023/06/30 08:39:31;;;;;;;1999.90;999.90;;;19.10;99.90;;;;;;6749814;88;20272;-78
2023/06/30 08:49:33;;;;;;;1999.90;999.90;;;19.80;99.90;;;;;;6746664;88;20210;-78
2023/06/30 08:59:33;;;;;;;1999.90;999.90;;;21.10;99.90;;;;;;6747320;88;20208;-78
2023/06/30 09:09:45;;;;;;;1999.90;999.90;;;20.80;99.90;;;;;;6740771;88;20524;-79
2023/06/30 09:19:46;;;;;;;1999.90;999.90;;;20.70;99.90;;;;;;6732476;88;20297;-80
2023/06/30 09:29:54;;;;;;;1999.90;999.90;;;21.50;99.90;;;;;;6738913;88;20203;-78
2023/06/30 09:39:54;;;;;;;1999.90;999.90;;;21.50;99.90;;;;;;6745811;88;20265;-78
2023/06/30 09:49:55;;;;;;;1999.90;999.90;;;21.60;99.90;;;;;;6740223;88;20989;-78
2023/06/30 09:59:59;;;;;;;1999.90;999.90;;;22.40;99.90;;;;;;6741036;88;20950;-78
2023/06/30 10:10:02;;;;;;;1999.90;999.90;;;22.80;99.90;;;;;;6762329;87;20200;-79
2023/06/30 10:20:11;;;;;;;1999.90;999.90;;;23.20;99.90;;;;;;6776680;87;20180;-79
2023/06/30 10:30:12;;;;;;;1999.90;999.90;;;23.40;98.70;;;;;;6772550;87;20176;-79
2023/06/30 10:40:29;;;;;;;1999.90;999.90;;;22.90;97.50;;;;;;6768698;87;20225;-77
2023/06/30 10:50:40;;;;;;;1999.90;999.90;;;23.00;95.70;;;;;;6760358;87;20191;-79
2023/06/30 11:01:02;;;;;;;1999.90;999.90;;;23.70;94.30;;;;;;6754350;87;20270;-78
2023/06/30 11:11:06;;;;;;;1999.90;999.90;;;24.50;94.50;;;;;;6756974;87;20252;-78
2023/06/30 11:21:07;;;;;;;1999.90;999.90;;;25.40;93.10;;;;;;6761309;87;20212;-78
2023/06/30 11:31:07;;;;;;;1999.90;999.90;;;25.90;92.20;;;;;;6774930;87;20184;-79
2023/06/30 11:41:08;;;;;;;1999.90;999.90;;;26.80;84.80;;;;;;6765902;87;20249;-77
2023/06/30 11:51:11;;;;;;;1999.90;999.90;;;26.00;85.80;;;;;;6767323;87;20229;-78
2023/06/30 12:01:12;;;;;;;1999.90;999.90;;;27.20;89.90;;;;;;6760667;87;20179;-78
2023/06/30 12:11:13;;;;;;;1999.90;999.90;;;27.50;78.40;;;;;;6751323;88;20759;-78
2023/06/30 12:21:13;;;;;;;1999.90;999.90;;;27.60;79.50;;;;;;6744229;88;20193;-77
2023/06/30 12:31:14;;;;;;;1999.90;999.90;;;27.70;76.20;;;;;;6744673;88;20695;-78
2023/06/30 12:41:17;;;;;;;1999.90;999.90;;;26.70;79.80;;;;;;6764449;88;20552;-79
2023/06/30 12:51:17;;;;;;;1999.90;999.90;;;26.30;77.70;;;;;;6746910;88;20193;-79
2023/06/30 13:01:18;;;;;;;1999.90;999.90;;;25.90;80.50;;;;;;6752188;88;20210;-78
2023/06/30 13:11:18;;;;;;;1999.90;999.90;;;26.50;77.20;;;;;;6741829;88;20338;-78
2023/06/30 13:21:19;;;;;;;1999.90;999.90;;;26.90;78.40;;;;;;6744094;88;20204;-79
2023/06/30 13:31:19;;;;;;;1999.90;999.90;;;27.30;78.40;;;;;;6745201;88;20221;-80
2023/06/30 13:41:20;;;;;;;1999.90;999.90;;;27.60;78.30;;;;;;6745314;88;20597;-79
2023/06/30 13:51:21;;;;;;;1999.90;999.90;;;28.30;76.10;;;;;;6764641;87;20195;-78
2023/06/30 14:01:21;;;;;;;1999.90;999.90;;;28.50;76.60;;;;;;6761806;87;20337;-78
2023/06/30 14:11:22;;;;;;;1999.90;999.90;;;28.40;74.10;;;;;;6758191;88;20191;-76
2023/06/30 14:21:22;;;;;;;1999.90;999.90;;;28.00;76.50;;;;;;6751453;87;20275;-78
2023/06/30 14:31:23;;;;;;;1999.90;999.90;;;27.20;73.00;;;;;;6743522;88;20244;-80
2023/06/30 14:41:23;;;;;;;1999.90;999.90;;;26.60;76.10;;;;;;6742786;88;20173;-83
2023/06/30 14:51:24;;;;;;;1999.90;999.90;;;27.30;74.60;;;;;;6750312;88;20370;-81
2023/06/30 15:01:25;;;;;;;1999.90;999.90;;;27.40;75.40;;;;;;6745747;88;20238;-79
2023/06/30 15:11:27;;;;;;;1999.90;999.90;;;27.40;74.80;;;;;;6745358;88;20208;-79
2023/06/30 15:21:27;;;;;;;1999.90;999.90;;;26.40;74.10;;;;;;6746774;88;20185;-79
2023/06/30 15:31:29;;;;;;;1999.90;999.90;;;25.50;75.00;;;;;;6773834;88;20215;-81
2023/06/30 15:41:29;;;;;;;1999.90;999.90;;;25.50;78.20;;;;;;6778776;88;20988;-82
2023/06/30 15:51:32;;;;;;;1999.90;999.90;;;26.10;78.70;;;;;;6777899;88;20212;-83
2023/06/30 16:01:32;;;;;;;1999.90;999.90;;;25.90;76.00;;;;;;6770456;88;20188;-82
2023/06/30 16:11:33;;;;;;;1999.90;999.90;;;25.70;77.50;;;;;;6766504;88;20700;-82
2023/06/30 16:21:33;;;;;;;1999.90;999.90;;;26.10;74.90;;;;;;6767906;88;20202;-82
2023/06/30 16:31:34;;;;;;;1999.90;999.90;;;25.70;76.30;;;;;;6768996;88;20584;-80
2023/06/30 16:41:34;;;;;;;1999.90;999.90;;;25.30;76.10;;;;;;6755820;88;20256;-81
2023/06/30 16:51:35;;;;;;;1999.90;999.90;;;25.30;76.40;;;;;;6769317;88;20229;-80
2023/06/30 17:01:35;;;;;;;1999.90;999.90;;;24.90;74.70;;;;;;6752009;88;20278;-80
2023/06/30 17:11:36;;;;;;;1999.90;999.90;;;24.60;75.50;;;;;;6749123;88;20185;-77
2023/06/30 17:21:38;;;;;;;1999.90;999.90;;;24.20;78.20;;;;;;6745752;88;20200;-77
2023/06/30 17:31:39;;;;;;;1999.90;999.90;;;24.20;76.90;;;;;;6742600;88;20180;-78
2023/06/30 17:41:40;;;;;;;1999.90;999.90;;;24.30;78.00;;;;;;6744255;88;20185;-78
2023/06/30 17:51:41;;;;;;;1999.90;999.90;;;23.90;78.00;;;;;;6752712;88;20184;-80
2023/06/30 18:01:43;;;;;;;1999.90;999.90;;;23.50;79.40;;;;;;6757926;88;20284;-79
2023/06/30 18:11:43;;;;;;;1999.90;999.90;;;23.20;81.80;;;;;;6753779;88;20172;-80
2023/06/30 18:21:44;;;;;;;1999.90;999.90;;;22.90;81.30;;;;;;6757693;88;20505;-80
2023/06/30 18:31:45;;;;;;;1999.90;999.90;;;22.50;82.60;;;;;;6760904;87;20204;-79
2023/06/30 18:41:46;;;;;;;1999.90;999.90;;;22.10;83.70;;;;;;6770247;88;20547;-80
2023/06/30 18:51:46;;;;;;;1999.90;999.90;;;21.90;85.50;;;;;;6752493;88;20228;-78
2023/06/30 19:01:47;;;;;;;1999.90;999.90;;;21.60;85.60;;;;;;6763225;87;20270;-78
2023/06/30 19:11:47;;;;;;;1999.90;999.90;;;21.20;89.10;;;;;;6754439;88;20176;-79
2023/06/30 19:21:48;;;;;;;1999.90;999.90;;;20.90;90.80;;;;;;6758189;88;20493;-79
2023/06/30 19:31:48;;;;;;;1999.90;999.90;;;20.70;92.40;;;;;;6758269;87;20190;-78
2023/06/30 19:41:49;;;;;;;1999.90;999.90;;;20.30;92.40;;;;;;6760914;87;20298;-80
2023/06/30 19:51:49;;;;;;;1999.90;999.90;;;20.10;94.00;;;;;;6751255;88;20347;-77
2023/06/30 20:01:54;;;;;;;1999.90;999.90;;;19.70;95.20;;;;;;6746961;87;20324;-78
2023/06/30 20:11:57;;;;;;;1999.90;999.90;;;19.50;99.90;;;;;;6747587;88;20162;-78
2023/06/30 20:21:57;;;;;;;1999.90;999.90;;;19.30;99.90;;;;;;6750601;88;20292;-78
2023/06/30 20:31:58;;;;;;;1999.90;999.90;;;18.90;99.90;;;;;;6747950;87;21410;-77
2023/06/30 20:41:59;;;;;;;1999.90;999.90;;;18.60;99.90;;;;;;6750907;87;20205;-79
2023/06/30 20:51:59;;;;;;;1999.90;999.90;;;18.40;99.90;;;;;;6751176;88;20202;-79
2023/06/30 21:02:01;;;;;;;1999.90;999.90;;;18.20;99.90;;;;;;6759611;87;20210;-78
2023/06/30 21:12:02;;;;;;;1999.90;999.90;;;17.90;99.90;;;;;;6747007;88;20210;-78
2023/06/30 21:22:03;;;;;;;1999.90;999.90;;;17.80;99.90;;;;;;6737213;88;20203;-78
2023/06/30 21:32:05;;;;;;;1999.90;999.90;;;17.90;99.90;;;;;;6739127;88;20210;-78
2023/06/30 21:42:06;;;;;;;1999.90;999.90;;;17.80;99.90;;;;;;6739681;88;20671;-78
2023/06/30 21:52:06;;;;;;;1999.90;999.90;;;17.70;99.90;;;;;;6739403;88;20218;-78
2023/06/30 22:02:08;;;;;;;1999.90;999.90;;;17.50;99.90;;;;;;6739023;88;20715;-77
2023/06/30 22:12:09;;;;;;;1999.90;999.90;;;17.40;99.90;;;;;;6743829;88;20289;-78
2023/06/30 22:22:09;;;;;;;1999.90;999.90;;;17.30;99.90;;;;;;6769789;87;20273;-78
2023/06/30 22:32:12;;;;;;;1999.90;999.90;;;17.30;99.90;;;;;;6774128;87;20214;-77
2023/06/30 22:42:13;;;;;;;1999.90;999.90;;;17.20;99.90;;;;;;6772717;87;20219;-77
2023/06/30 22:52:13;;;;;;;1999.90;999.90;;;17.20;99.90;;;;;;6773092;87;20191;-78
2023/06/30 23:02:14;;;;;;;1999.90;999.90;;;17.10;99.90;;;;;;6770971;87;20202;-77
2023/06/30 23:12:14;;;;;;;1999.90;999.90;;;17.00;99.90;;;;;;6741755;77;20847;-77
2023/06/30 23:22:16;;;;;;;1999.90;999.90;;;16.90;99.90;;;;;;6751282;88;20223;-77
2023/06/30 23:32:21;;;;;;;1999.90;999.90;;;17.00;99.90;;;;;;6746019;88;20204;-77
2023/06/30 23:42:21;;;;;;;1999.90;999.90;;;17.20;99.90;;;;;;6746871;88;20207;-77
2023/06/30 23:52:23;;;;;;;1999.90;999.90;;;17.00;99.90;;;;;;6750573;87;20297;-77
